Terminal Aerodrome Forecast
Issued by NWS Corpus Christi, TX

Home | Current Version | Previous Version | Text Only | Print | Product List | Glossary On
Versions: 1 2 3 4 5 6 7 8 9 10 11 12 13 14 15
000
FTUS44 KCRP 020532
TAFVCT
TAF
KVCT 020532Z 0206/0306 10005KT P6SM VCSH SCT025
      TEMPO 0206/0209 -SHRA
     FM020900 VRB03KT P6SM VCSH SCT009 BKN020
      TEMPO 0210/0212 5SM -SHRA BR
     FM021300 09004KT P6SM VCSH BKN025
     FM021600 15011KT P6SM VCTS SCT030CB
     FM022300 12009KT P6SM SCT030=

USA.gov is the U.S. government's official web portal to all federal, state and local government web resources and services.